sensor_id;sensor_type;location;lat;lon;timestamp;pressure;altitude;pressure_sealevel;temperature;humidity
7760;BME280;3924;48.830;9.262;2023-12-04T00:01:49;98824.13;;;-3.94;83.94
7760;BME280;3924;48.830;9.262;2023-12-04T00:04:16;98821.88;;;-3.97;84.02
7760;BME280;3924;48.830;9.262;2023-12-04T00:06:43;98813.94;;;-3.97;84.08
7760;BME280;3924;48.830;9.262;2023-12-04T00:09:10;98801.88;;;-4.00;84.25
7760;BME280;3924;48.830;9.262;2023-12-04T00:11:36;98800.25;;;-4.01;84.16
7760;BME280;3924;48.830;9.262;2023-12-04T00:14:03;98805.56;;;-4.01;84.18
7760;BME280;3924;48.830;9.262;2023-12-04T00:16:33;98801.28;;;-4.02;84.29
7760;BME280;3924;48.830;9.262;2023-12-04T00:19:00;98793.94;;;-4.00;84.17
7760;BME280;3924;48.830;9.262;2023-12-04T00:21:26;98793.13;;;-4.00;84.04
7760;BME280;3924;48.830;9.262;2023-12-04T00:23:53;98785.19;;;-4.00;84.33
7760;BME280;3924;48.830;9.262;2023-12-04T00:26:20;98781.09;;;-4.03;84.08
7760;BME280;3924;48.830;9.262;2023-12-04T00:28:47;98776.19;;;-4.06;84.11
7760;BME280;3924;48.830;9.262;2023-12-04T00:31:13;98775.38;;;-4.06;84.08
7760;BME280;3924;48.830;9.262;2023-12-04T00:33:40;98769.66;;;-4.10;83.97
7760;BME280;3924;48.830;9.262;2023-12-04T00:36:07;98761.47;;;-4.15;84.10
7760;BME280;3924;48.830;9.262;2023-12-04T00:38:33;98769.63;;;-4.17;84.00
7760;BME280;3924;48.830;9.262;2023-12-04T00:41:00;98762.69;;;-4.18;84.13
7760;BME280;3924;48.830;9.262;2023-12-04T00:43:27;98759.41;;;-4.20;84.49
7760;BME280;3924;48.830;9.262;2023-12-04T00:45:53;98759.59;;;-4.21;84.36
7760;BME280;3924;48.830;9.262;2023-12-04T00:48:20;98753.69;;;-4.23;84.40
7760;BME280;3924;48.830;9.262;2023-12-04T00:50:47;98754.06;;;-4.26;84.18
7760;BME280;3924;48.830;9.262;2023-12-04T00:53:13;98749.56;;;-4.26;84.48
7760;BME280;3924;48.830;9.262;2023-12-04T00:55:40;98748.97;;;-4.28;84.51
7760;BME280;3924;48.830;9.262;2023-12-04T00:58:07;98746.31;;;-4.28;84.48
7760;BME280;3924;48.830;9.262;2023-12-04T01:00:34;98740.00;;;-4.27;84.77
7760;BME280;3924;48.830;9.262;2023-12-04T01:03:00;98727.59;;;-4.26;84.70
7760;BME280;3924;48.830;9.262;2023-12-04T01:05:27;98733.53;;;-4.24;84.42
7760;BME280;3924;48.830;9.262;2023-12-04T01:07:53;98722.75;;;-4.23;84.25
7760;BME280;3924;48.830;9.262;2023-12-04T01:10:20;98719.09;;;-4.22;84.53
7760;BME280;3924;48.830;9.262;2023-12-04T01:12:46;98720.72;;;-4.21;84.58
7760;BME280;3924;48.830;9.262;2023-12-04T01:15:13;98732.50;;;-4.23;84.23
7760;BME280;3924;48.830;9.262;2023-12-04T01:17:39;98726.81;;;-4.20;84.44
7760;BME280;3924;48.830;9.262;2023-12-04T01:20:07;98728.84;;;-4.22;84.49
7760;BME280;3924;48.830;9.262;2023-12-04T01:22:33;98721.13;;;-4.24;84.46
7760;BME280;3924;48.830;9.262;2023-12-04T01:25:00;98717.44;;;-4.23;84.38
7760;BME280;3924;48.830;9.262;2023-12-04T01:27:27;98722.75;;;-4.23;84.65
7760;BME280;3924;48.830;9.262;2023-12-04T01:29:53;98715.81;;;-4.24;84.37
7760;BME280;3924;48.830;9.262;2023-12-04T01:32:20;98715.19;;;-4.26;84.34
7760;BME280;3924;48.830;9.262;2023-12-04T01:34:46;98706.88;;;-4.23;84.43
7760;BME280;3924;48.830;9.262;2023-12-04T01:37:13;98709.31;;;-4.21;84.43
7760;BME280;3924;48.830;9.262;2023-12-04T01:39:39;98708.09;;;-4.19;84.29
7760;BME280;3924;48.830;9.262;2023-12-04T01:42:06;98698.34;;;-4.18;84.39
7760;BME280;3924;48.830;9.262;2023-12-04T01:44:32;98691.22;;;-4.18;84.43
7760;BME280;3924;48.830;9.262;2023-12-04T01:46:59;98689.56;;;-4.19;84.27
7760;BME280;3924;48.830;9.262;2023-12-04T01:49:25;98694.06;;;-4.19;84.46
7760;BME280;3924;48.830;9.262;2023-12-04T01:51:52;98706.25;;;-4.25;84.49
7760;BME280;3924;48.830;9.262;2023-12-04T01:54:19;98699.09;;;-4.31;84.32
7760;BME280;3924;48.830;9.262;2023-12-04T01:56:47;98694.16;;;-4.34;84.36
7760;BME280;3924;48.830;9.262;2023-12-04T01:59:13;98696.59;;;-4.32;84.48
7760;BME280;3924;48.830;9.262;2023-12-04T02:01:40;98684.84;;;-4.30;84.50
7760;BME280;3924;48.830;9.262;2023-12-04T02:04:07;98684.44;;;-4.27;84.48
7760;BME280;3924;48.830;9.262;2023-12-04T02:06:34;98697.50;;;-4.25;84.55
7760;BME280;3924;48.830;9.262;2023-12-04T02:09:01;98693.03;;;-4.25;84.51
7760;BME280;3924;48.830;9.262;2023-12-04T02:11:28;98691.00;;;-4.23;84.39
7760;BME280;3924;48.830;9.262;2023-12-04T02:13:55;98696.28;;;-4.23;84.54
7760;BME280;3924;48.830;9.262;2023-12-04T02:16:23;98694.66;;;-4.24;84.59
7760;BME280;3924;48.830;9.262;2023-12-04T02:18:53;98698.13;;;-4.23;84.47
7760;BME280;3924;48.830;9.262;2023-12-04T02:21:20;98689.34;;;-4.24;84.39
7760;BME280;3924;48.830;9.262;2023-12-04T02:23:51;98683.44;;;-4.26;84.40
7760;BME280;3924;48.830;9.262;2023-12-04T02:26:23;98673.84;;;-4.27;84.25
7760;BME280;3924;48.830;9.262;2023-12-04T02:28:54;98666.94;;;-4.28;84.14
7760;BME280;3924;48.830;9.262;2023-12-04T02:31:23;98661.44;;;-4.26;84.57
7760;BME280;3924;48.830;9.262;2023-12-04T02:33:52;98648.63;;;-4.29;84.66
7760;BME280;3924;48.830;9.262;2023-12-04T02:36:23;98641.69;;;-4.30;84.56
7760;BME280;3924;48.830;9.262;2023-12-04T02:38:52;98643.53;;;-4.31;84.77
7760;BME280;3924;48.830;9.262;2023-12-04T02:41:19;98651.84;;;-4.34;84.63
7760;BME280;3924;48.830;9.262;2023-12-04T02:43:45;98654.28;;;-4.32;84.58
7760;BME280;3924;48.830;9.262;2023-12-04T02:46:12;98657.75;;;-4.32;84.71
7760;BME280;3924;48.830;9.262;2023-12-04T02:48:39;98658.38;;;-4.30;84.72
7760;BME280;3924;48.830;9.262;2023-12-04T02:51:05;98652.47;;;-4.32;84.60
7760;BME280;3924;48.830;9.262;2023-12-04T02:53:32;98657.75;;;-4.32;84.56
7760;BME280;3924;48.830;9.262;2023-12-04T02:55:58;98655.50;;;-4.35;84.61
7760;BME280;3924;48.830;9.262;2023-12-04T02:58:25;98649.59;;;-4.37;84.75
7760;BME280;3924;48.830;9.262;2023-12-04T03:00:51;98644.28;;;-4.37;84.49
7760;BME280;3924;48.830;9.262;2023-12-04T03:03:18;98634.72;;;-4.38;84.77
7760;BME280;3924;48.830;9.262;2023-12-04T03:05:45;98623.50;;;-4.40;84.56
7760;BME280;3924;48.830;9.262;2023-12-04T03:08:11;98617.59;;;-4.42;84.52
7760;BME280;3924;48.830;9.262;2023-12-04T03:10:38;98619.63;;;-4.44;84.65
7760;BME280;3924;48.830;9.262;2023-12-04T03:13:04;98606.16;;;-4.49;84.50
7760;BME280;3924;48.830;9.262;2023-12-04T03:15:31;98605.16;;;-4.48;84.68
7760;BME280;3924;48.830;9.262;2023-12-04T03:17:59;98600.88;;;-4.49;84.57
7760;BME280;3924;48.830;9.262;2023-12-04T03:20:26;98594.56;;;-4.48;84.59
7760;BME280;3924;48.830;9.262;2023-12-04T03:22:53;98591.56;;;-4.45;84.61
7760;BME280;3924;48.830;9.262;2023-12-04T03:25:19;98587.88;;;-4.44;84.70
7760;BME280;3924;48.830;9.262;2023-12-04T03:27:46;98590.13;;;-4.41;84.66
7760;BME280;3924;48.830;9.262;2023-12-04T03:30:12;98581.81;;;-4.38;84.81
7760;BME280;3924;48.830;9.262;2023-12-04T03:32:39;98572.88;;;-4.37;84.69
7760;BME280;3924;48.830;9.262;2023-12-04T03:35:06;98560.25;;;-4.35;84.81
7760;BME280;3924;48.830;9.262;2023-12-04T03:37:32;98565.97;;;-4.31;84.76
7760;BME280;3924;48.830;9.262;2023-12-04T03:39:59;98571.28;;;-4.31;84.88
7760;BME280;3924;48.830;9.262;2023-12-04T03:42:26;98569.63;;;-4.32;84.54
7760;BME280;3924;48.830;9.262;2023-12-04T03:44:53;98561.47;;;-4.37;84.71
7760;BME280;3924;48.830;9.262;2023-12-04T03:47:19;98550.06;;;-4.38;84.75
7760;BME280;3924;48.830;9.262;2023-12-04T03:49:46;98544.16;;;-4.40;84.61
7760;BME280;3924;48.830;9.262;2023-12-04T03:52:12;98539.50;;;-4.38;84.77
7760;BME280;3924;48.830;9.262;2023-12-04T03:54:39;98536.66;;;-4.36;84.72
7760;BME280;3924;48.830;9.262;2023-12-04T03:57:05;98520.78;;;-4.36;84.59
7760;BME280;3924;48.830;9.262;2023-12-04T03:59:32;98517.91;;;-4.35;84.54
7760;BME280;3924;48.830;9.262;2023-12-04T04:01:58;98524.25;;;-4.29;84.64
7760;BME280;3924;48.830;9.262;2023-12-04T04:04:25;98528.53;;;-4.28;84.67
7760;BME280;3924;48.830;9.262;2023-12-04T04:06:52;98528.13;;;-4.32;84.19
7760;BME280;3924;48.830;9.262;2023-12-04T04:09:19;98529.31;;;-4.34;84.91
7760;BME280;3924;48.830;9.262;2023-12-04T04:11:46;98533.78;;;-4.35;84.70
7760;BME280;3924;48.830;9.262;2023-12-04T04:14:13;98535.41;;;-4.34;84.72
7760;BME280;3924;48.830;9.262;2023-12-04T04:16:40;98533.41;;;-4.32;84.64
7760;BME280;3924;48.830;9.262;2023-12-04T04:19:06;98523.22;;;-4.35;84.49
7760;BME280;3924;48.830;9.262;2023-12-04T04:21:33;98527.47;;;-4.34;84.65
7760;BME280;3924;48.830;9.262;2023-12-04T04:24:01;98532.16;;;-4.36;84.81
7760;BME280;3924;48.830;9.262;2023-12-04T04:26:28;98529.72;;;-4.37;84.57
7760;BME280;3924;48.830;9.262;2023-12-04T04:28:54;98513.84;;;-4.37;84.58
7760;BME280;3924;48.830;9.262;2023-12-04T04:31:21;98530.94;;;-4.33;84.80
7760;BME280;3924;48.830;9.262;2023-12-04T04:33:47;98520.78;;;-4.30;85.00
7760;BME280;3924;48.830;9.262;2023-12-04T04:36:14;98521.63;;;-4.29;84.73
7760;BME280;3924;48.830;9.262;2023-12-04T04:38:41;98529.75;;;-4.31;84.52
7760;BME280;3924;48.830;9.262;2023-12-04T04:41:13;98536.44;;;-4.35;84.37
7760;BME280;3924;48.830;9.262;2023-12-04T04:43:39;98540.50;;;-4.39;84.40
7760;BME280;3924;48.830;9.262;2023-12-04T04:46:06;98533.56;;;-4.40;84.58
7760;BME280;3924;48.830;9.262;2023-12-04T04:48:32;98524.00;;;-4.41;84.44
7760;BME280;3924;48.830;9.262;2023-12-04T04:50:59;98522.97;;;-4.40;84.57
7760;BME280;3924;48.830;9.262;2023-12-04T04:53:25;98524.84;;;-4.34;84.55
7760;BME280;3924;48.830;9.262;2023-12-04T04:55:54;98522.84;;;-4.32;84.63
7760;BME280;3924;48.830;9.262;2023-12-04T04:58:20;98511.84;;;-4.29;84.70
7760;BME280;3924;48.830;9.262;2023-12-04T05:00:47;98520.38;;;-4.27;84.38
7760;BME280;3924;48.830;9.262;2023-12-04T05:03:14;98522.00;;;-4.26;84.61
7760;BME280;3924;48.830;9.262;2023-12-04T05:05:40;98519.19;;;-4.24;84.68
7760;BME280;3924;48.830;9.262;2023-12-04T05:08:07;98516.34;;;-4.23;84.43
7760;BME280;3924;48.830;9.262;2023-12-04T05:10:34;98516.34;;;-4.23;84.46
7760;BME280;3924;48.830;9.262;2023-12-04T05:13:00;98515.13;;;-4.20;84.55
7760;BME280;3924;48.830;9.262;2023-12-04T05:15:27;98505.56;;;-4.15;84.30
7760;BME280;3924;48.830;9.262;2023-12-04T05:17:54;98507.84;;;-4.11;84.36
7760;BME280;3924;48.830;9.262;2023-12-04T05:20:20;98490.13;;;-4.11;84.24
7760;BME280;3924;48.830;9.262;2023-12-04T05:22:47;98490.53;;;-4.07;84.28
7760;BME280;3924;48.830;9.262;2023-12-04T05:25:15;98482.59;;;-4.07;84.26
7760;BME280;3924;48.830;9.262;2023-12-04T05:27:42;98485.03;;;-4.06;84.58
7760;BME280;3924;48.830;9.262;2023-12-04T05:30:08;98478.53;;;-4.03;84.45
7760;BME280;3924;48.830;9.262;2023-12-04T05:32:35;98482.19;;;-4.04;84.41
7760;BME280;3924;48.830;9.262;2023-12-04T05:35:02;98469.56;;;-4.02;84.40
7760;BME280;3924;48.830;9.262;2023-12-04T05:37:29;98474.06;;;-4.03;84.50
7760;BME280;3924;48.830;9.262;2023-12-04T05:39:55;98467.53;;;-4.00;84.47
7760;BME280;3924;48.830;9.262;2023-12-04T05:42:22;98467.16;;;-3.97;84.50
7760;BME280;3924;48.830;9.262;2023-12-04T05:44:48;98450.03;;;-3.95;84.41
7760;BME280;3924;48.830;9.262;2023-12-04T05:47:15;98445.97;;;-3.97;84.36
7760;BME280;3924;48.830;9.262;2023-12-04T05:49:42;98451.66;;;-3.94;84.53
7760;BME280;3924;48.830;9.262;2023-12-04T05:52:08;98454.09;;;-3.92;84.58
7760;BME280;3924;48.830;9.262;2023-12-04T05:54:35;98453.72;;;-3.89;84.41
7760;BME280;3924;48.830;9.262;2023-12-04T05:57:02;98450.47;;;-3.91;84.40
7760;BME280;3924;48.830;9.262;2023-12-04T05:59:29;98453.09;;;-3.91;84.39
7760;BME280;3924;48.830;9.262;2023-12-04T06:01:55;98447.81;;;-3.91;84.40
7760;BME280;3924;48.830;9.262;2023-12-04T06:04:22;98447.59;;;-3.90;84.26
7760;BME280;3924;48.830;9.262;2023-12-04T06:06:49;98438.84;;;-3.90;84.33
7760;BME280;3924;48.830;9.262;2023-12-04T06:09:15;98445.16;;;-3.91;84.42
7760;BME280;3924;48.830;9.262;2023-12-04T06:11:42;98445.16;;;-3.91;84.45
7760;BME280;3924;48.830;9.262;2023-12-04T06:14:12;98447.16;;;-3.93;84.49
7760;BME280;3924;48.830;9.262;2023-12-04T06:16:39;98444.53;;;-3.93;84.29
7760;BME280;3924;48.830;9.262;2023-12-04T06:19:05;98446.38;;;-3.94;84.39
7760;BME280;3924;48.830;9.262;2023-12-04T06:21:32;98455.75;;;-3.91;84.48
7760;BME280;3924;48.830;9.262;2023-12-04T06:23:59;98452.91;;;-3.90;84.58
7760;BME280;3924;48.830;9.262;2023-12-04T06:26:26;98449.22;;;-3.89;84.55
7760;BME280;3924;48.830;9.262;2023-12-04T06:28:53;98439.44;;;-3.88;84.20
7760;BME280;3924;48.830;9.262;2023-12-04T06:31:19;98448.81;;;-3.86;84.10
7760;BME280;3924;48.830;9.262;2023-12-04T06:33:46;98442.31;;;-3.83;84.40
7760;BME280;3924;48.830;9.262;2023-12-04T06:36:13;98446.59;;;-3.82;84.49
7760;BME280;3924;48.830;9.262;2023-12-04T06:38:41;98444.31;;;-3.78;84.47
7760;BME280;3924;48.830;9.262;2023-12-04T06:41:08;98444.97;;;-3.76;84.16
7760;BME280;3924;48.830;9.262;2023-12-04T06:43:35;98445.34;;;-3.73;84.34
7760;BME280;3924;48.830;9.262;2023-12-04T06:46:02;98437.84;;;-3.76;84.29
7760;BME280;3924;48.830;9.262;2023-12-04T06:48:29;98438.66;;;-3.75;84.30
7760;BME280;3924;48.830;9.262;2023-12-04T06:50:56;98440.47;;;-3.76;84.27
7760;BME280;3924;48.830;9.262;2023-12-04T06:53:22;98438.66;;;-3.75;84.21
7760;BME280;3924;48.830;9.262;2023-12-04T06:55:49;98428.88;;;-3.75;84.34
7760;BME280;3924;48.830;9.262;2023-12-04T06:58:15;98429.47;;;-3.73;84.08
7760;BME280;3924;48.830;9.262;2023-12-04T07:00:42;98429.06;;;-3.70;84.39
7760;BME280;3924;48.830;9.262;2023-12-04T07:03:09;98424.78;;;-3.71;84.03
7760;BME280;3924;48.830;9.262;2023-12-04T07:05:35;98425.63;;;-3.70;84.18
7760;BME280;3924;48.830;9.262;2023-12-04T07:08:02;98421.94;;;-3.69;84.07
7760;BME280;3924;48.830;9.262;2023-12-04T07:10:29;98419.09;;;-3.68;84.12
7760;BME280;3924;48.830;9.262;2023-12-04T07:12:59;98417.84;;;-3.65;84.27
7760;BME280;3924;48.830;9.262;2023-12-04T07:15:25;98418.25;;;-3.62;84.28
7760;BME280;3924;48.830;9.262;2023-12-04T07:17:52;98412.53;;;-3.59;84.06
7760;BME280;3924;48.830;9.262;2023-12-04T07:20:21;98415.19;;;-3.59;84.21
7760;BME280;3924;48.830;9.262;2023-12-04T07:22:50;98414.97;;;-3.57;84.19
7760;BME280;3924;48.830;9.262;2023-12-04T07:25:16;98407.88;;;-3.56;84.03
7760;BME280;3924;48.830;9.262;2023-12-04T07:27:43;98407.88;;;-3.56;84.02
7760;BME280;3924;48.830;9.262;2023-12-04T07:30:10;98403.56;;;-3.58;84.13
7760;BME280;3924;48.830;9.262;2023-12-04T07:32:37;98406.44;;;-3.52;83.84
7760;BME280;3924;48.830;9.262;2023-12-04T07:35:04;98391.97;;;-3.50;83.99
7760;BME280;3924;48.830;9.262;2023-12-04T07:37:31;98391.75;;;-3.48;83.96
7760;BME280;3924;48.830;9.262;2023-12-04T07:39:58;98400.72;;;-3.43;83.93
7760;BME280;3924;48.830;9.262;2023-12-04T07:42:25;98403.16;;;-3.41;83.81
7760;BME280;3924;48.830;9.262;2023-12-04T07:44:52;98393.16;;;-3.39;83.98
7760;BME280;3924;48.830;9.262;2023-12-04T07:47:19;98386.84;;;-3.38;83.92
7760;BME280;3924;48.830;9.262;2023-12-04T07:49:45;98389.09;;;-3.35;83.85
7760;BME280;3924;48.830;9.262;2023-12-04T07:52:12;98387.63;;;-3.31;83.71
7760;BME280;3924;48.830;9.262;2023-12-04T07:54:40;98383.16;;;-3.31;83.54
7760;BME280;3924;48.830;9.262;2023-12-04T07:57:06;98371.34;;;-3.28;83.69
7760;BME280;3924;48.830;9.262;2023-12-04T07:59:33;98383.34;;;-3.25;83.51
7760;BME280;3924;48.830;9.262;2023-12-04T08:02:00;98383.75;;;-3.22;83.70
7760;BME280;3924;48.830;9.262;2023-12-04T08:04:27;98375.78;;;-3.15;83.65
7760;BME280;3924;48.830;9.262;2023-12-04T08:06:54;98378.22;;;-3.14;83.52
7760;BME280;3924;48.830;9.262;2023-12-04T08:09:21;98378.19;;;-3.07;83.54
7760;BME280;3924;48.830;9.262;2023-12-04T08:11:47;98369.59;;;-3.03;83.32
7760;BME280;3924;48.830;9.262;2023-12-04T08:14:14;98371.84;;;-2.99;83.32
7760;BME280;3924;48.830;9.262;2023-12-04T08:16:42;98373.66;;;-2.93;83.44
7760;BME280;3924;48.830;9.262;2023-12-04T08:19:09;98374.44;;;-2.86;83.36
7760;BME280;3924;48.830;9.262;2023-12-04T08:21:36;98369.94;;;-2.79;83.11
7760;BME280;3924;48.830;9.262;2023-12-04T08:24:02;98378.47;;;-2.77;82.85
7760;BME280;3924;48.830;9.262;2023-12-04T08:26:29;98356.84;;;-2.74;82.85
7760;BME280;3924;48.830;9.262;2023-12-04T08:28:55;98342.97;;;-2.76;83.19
7760;BME280;3924;48.830;9.262;2023-12-04T08:31:22;98347.88;;;-2.73;82.89
7760;BME280;3924;48.830;9.262;2023-12-04T08:33:49;98341.91;;;-2.68;82.95
7760;BME280;3924;48.830;9.262;2023-12-04T08:36:16;98331.50;;;-2.70;82.99
7760;BME280;3924;48.830;9.262;2023-12-04T08:38:43;98323.34;;;-2.68;82.75
7760;BME280;3924;48.830;9.262;2023-12-04T08:41:09;98321.31;;;-2.66;82.68
7760;BME280;3924;48.830;9.262;2023-12-04T08:43:36;98314.75;;;-2.64;82.69
7760;BME280;3924;48.830;9.262;2023-12-04T08:46:02;98329.41;;;-2.61;82.81
7760;BME280;3924;48.830;9.262;2023-12-04T08:48:29;98333.06;;;-2.56;82.91
7760;BME280;3924;48.830;9.262;2023-12-04T08:50:56;98339.94;;;-2.48;82.75
7760;BME280;3924;48.830;9.262;2023-12-04T08:53:23;98332.75;;;-2.41;82.85
7760;BME280;3924;48.830;9.262;2023-12-04T08:55:49;98340.25;;;-2.31;82.46
7760;BME280;3924;48.830;9.262;2023-12-04T08:58:18;98335.72;;;-2.24;82.74
7760;BME280;3924;48.830;9.262;2023-12-04T09:00:45;98336.47;;;-2.17;82.60
7760;BME280;3924;48.830;9.262;2023-12-04T09:03:12;98333.19;;;-2.12;82.32
7760;BME280;3924;48.830;9.262;2023-12-04T09:05:51;98331.94;;;-2.10;82.32
7760;BME280;3924;48.830;9.262;2023-12-04T09:08:18;98335.56;;;-2.04;82.22
7760;BME280;3924;48.830;9.262;2023-12-04T09:11:02;98321.63;;;-2.00;82.37
7760;BME280;3924;48.830;9.262;2023-12-04T09:13:48;98328.56;;;-1.99;82.46
7760;BME280;3924;48.830;9.262;2023-12-04T09:16:14;98346.19;;;-2.04;82.04
7760;BME280;3924;48.830;9.262;2023-12-04T09:18:41;98358.09;;;-2.13;82.16
7760;BME280;3924;48.830;9.262;2023-12-04T09:21:08;98342.19;;;-2.20;82.19
7760;BME280;3924;48.830;9.262;2023-12-04T09:23:35;98341.19;;;-2.19;82.38
7760;BME280;3924;48.830;9.262;2023-12-04T09:26:02;98327.16;;;-2.26;82.24
7760;BME280;3924;48.830;9.262;2023-12-04T09:28:28;98339.41;;;-2.25;82.52
7760;BME280;3924;48.830;9.262;2023-12-04T09:30:55;98322.66;;;-2.26;82.12
7760;BME280;3924;48.830;9.262;2023-12-04T09:33:21;98325.50;;;-2.27;82.44
7760;BME280;3924;48.830;9.262;2023-12-04T09:35:48;98329.81;;;-2.26;82.42
7760;BME280;3924;48.830;9.262;2023-12-04T09:38:14;98331.59;;;-2.20;82.33
7760;BME280;3924;48.830;9.262;2023-12-04T09:40:41;98331.75;;;-2.15;82.23
7760;BME280;3924;48.830;9.262;2023-12-04T09:43:08;98320.44;;;-2.04;82.28
7760;BME280;3924;48.830;9.262;2023-12-04T09:45:35;98313.22;;;-1.97;82.00
7760;BME280;3924;48.830;9.262;2023-12-04T09:48:02;98325.63;;;-1.90;82.05
7760;BME280;3924;48.830;9.262;2023-12-04T09:50:29;98329.47;;;-1.86;81.67
7760;BME280;3924;48.830;9.262;2023-12-04T09:52:59;98322.13;;;-1.84;81.70
7760;BME280;3924;48.830;9.262;2023-12-04T09:55:27;98321.09;;;-1.83;81.82
7760;BME280;3924;48.830;9.262;2023-12-04T09:57:54;98327.63;;;-1.86;81.45
7760;BME280;3924;48.830;9.262;2023-12-04T10:00:23;98331.31;;;-1.87;81.69
7760;BME280;3924;48.830;9.262;2023-12-04T10:02:51;98321.50;;;-1.86;81.64
7760;BME280;3924;48.830;9.262;2023-12-04T10:05:18;98321.31;;;-1.85;81.84
7760;BME280;3924;48.830;9.262;2023-12-04T10:07:45;98300.88;;;-1.84;81.53
7760;BME280;3924;48.830;9.262;2023-12-04T10:10:11;98325.94;;;-1.80;81.55
7760;BME280;3924;48.830;9.262;2023-12-04T10:12:38;98325.28;;;-1.76;81.51
7760;BME280;3924;48.830;9.262;2023-12-04T10:15:06;98302.94;;;-1.68;81.50
7760;BME280;3924;48.830;9.262;2023-12-04T10:17:35;98286.94;;;-1.61;81.33
7760;BME280;3924;48.830;9.262;2023-12-04T10:20:12;98287.75;;;-1.61;81.37
7760;BME280;3924;48.830;9.262;2023-12-04T10:22:40;98302.81;;;-1.55;81.07
7760;BME280;3924;48.830;9.262;2023-12-04T10:25:17;98296.03;;;-1.51;81.33
7760;BME280;3924;48.830;9.262;2023-12-04T10:27:45;98275.34;;;-1.49;81.11
7760;BME280;3924;48.830;9.262;2023-12-04T10:30:28;98281.00;;;-1.45;81.25
7760;BME280;3924;48.830;9.262;2023-12-04T10:32:59;98288.56;;;-1.42;81.23
7760;BME280;3924;48.830;9.262;2023-12-04T10:35:36;98290.09;;;-1.34;81.07
7760;BME280;3924;48.830;9.262;2023-12-04T10:38:05;98284.94;;;-1.29;81.07
7760;BME280;3924;48.830;9.262;2023-12-04T10:40:36;98281.16;;;-1.22;80.36
7760;BME280;3924;48.830;9.262;2023-12-04T10:43:20;98273.09;;;-1.15;80.37
7760;BME280;3924;48.830;9.262;2023-12-04T10:45:48;98265.47;;;-1.12;80.33
7760;BME280;3924;48.830;9.262;2023-12-04T10:48:17;98262.16;;;-1.07;80.87
7760;BME280;3924;48.830;9.262;2023-12-04T10:50:47;98263.09;;;-1.01;80.29
7760;BME280;3924;48.830;9.262;2023-12-04T10:53:15;98258.75;;;-0.96;80.59
7760;BME280;3924;48.830;9.262;2023-12-04T10:55:43;98245.78;;;-0.92;80.52
7760;BME280;3924;48.830;9.262;2023-12-04T10:58:15;98239.06;;;-0.95;80.07
7760;BME280;3924;48.830;9.262;2023-12-04T11:00:47;98234.56;;;-0.94;80.21
7760;BME280;3924;48.830;9.262;2023-12-04T11:03:25;98238.63;;;-0.92;80.38
7760;BME280;3924;48.830;9.262;2023-12-04T11:05:56;98228.34;;;-0.88;80.36
7760;BME280;3924;48.830;9.262;2023-12-04T11:08:28;98214.34;;;-0.84;80.23
7760;BME280;3924;48.830;9.262;2023-12-04T11:10:59;98209.16;;;-0.78;80.11
7760;BME280;3924;48.830;9.262;2023-12-04T11:13:30;98184.63;;;-0.69;79.83
7760;BME280;3924;48.830;9.262;2023-12-04T11:16:01;98192.06;;;-0.59;79.78
7760;BME280;3924;48.830;9.262;2023-12-04T11:18:31;98177.84;;;-0.53;79.71
7760;BME280;3924;48.830;9.262;2023-12-04T11:21:05;98191.38;;;-0.54;79.41
7760;BME280;3924;48.830;9.262;2023-12-04T11:23:34;98178.63;;;-0.64;79.74
7760;BME280;3924;48.830;9.262;2023-12-04T11:26:02;98193.47;;;-0.68;79.59
7760;BME280;3924;48.830;9.262;2023-12-04T11:28:30;98178.50;;;-0.69;79.81
7760;BME280;3924;48.830;9.262;2023-12-04T11:30:59;98188.34;;;-0.70;79.86
7760;BME280;3924;48.830;9.262;2023-12-04T11:33:27;98177.50;;;-0.68;79.80
7760;BME280;3924;48.830;9.262;2023-12-04T11:36:08;98185.34;;;-0.73;79.62
7760;BME280;3924;48.830;9.262;2023-12-04T11:38:46;98179.44;;;-0.75;79.82
7760;BME280;3924;48.830;9.262;2023-12-04T11:41:20;98187.06;;;-0.79;79.87
7760;BME280;3924;48.830;9.262;2023-12-04T11:43:55;98181.97;;;-0.80;79.68
7760;BME280;3924;48.830;9.262;2023-12-04T11:46:24;98186.25;;;-0.79;80.07
7760;BME280;3924;48.830;9.262;2023-12-04T11:48:56;98181.97;;;-0.80;79.98
7760;BME280;3924;48.830;9.262;2023-12-04T11:54:09;98167.16;;;-0.76;79.63
7760;BME280;3924;48.830;9.262;2023-12-04T11:56:36;98155.84;;;-0.72;79.77
7760;BME280;3924;48.830;9.262;2023-12-04T11:59:07;98136.97;;;-0.70;79.36
7760;BME280;3924;48.830;9.262;2023-12-04T12:01:35;98123.09;;;-0.72;79.50
7760;BME280;3924;48.830;9.262;2023-12-04T12:04:09;98120.66;;;-0.74;79.59
7760;BME280;3924;48.830;9.262;2023-12-04T12:06:38;98103.28;;;-0.76;79.74
7760;BME280;3924;48.830;9.262;2023-12-04T12:09:05;98085.94;;;-0.79;79.99
7760;BME280;3924;48.830;9.262;2023-12-04T12:11:33;98084.56;;;-0.81;79.70
7760;BME280;3924;48.830;9.262;2023-12-04T12:14:00;98081.31;;;-0.84;79.47
7760;BME280;3924;48.830;9.262;2023-12-04T12:16:28;98082.91;;;-0.83;79.74
7760;BME280;3924;48.830;9.262;2023-12-04T12:18:54;98081.09;;;-0.82;79.72
7760;BME280;3924;48.830;9.262;2023-12-04T12:21:21;98084.09;;;-0.78;79.80
7760;BME280;3924;48.830;9.262;2023-12-04T12:23:48;98076.91;;;-0.78;79.58
7760;BME280;3924;48.830;9.262;2023-12-04T12:26:15;98074.03;;;-0.76;79.68
7760;BME280;3924;48.830;9.262;2023-12-04T12:28:41;98070.09;;;-0.74;79.65
7760;BME280;3924;48.830;9.262;2023-12-04T12:31:08;98074.16;;;-0.71;79.74
7760;BME280;3924;48.830;9.262;2023-12-04T12:33:35;98054.03;;;-0.67;79.77
7760;BME280;3924;48.830;9.262;2023-12-04T12:36:01;98043.94;;;-0.65;79.47
7760;BME280;3924;48.830;9.262;2023-12-04T12:38:31;98023.69;;;-0.66;79.15
7760;BME280;3924;48.830;9.262;2023-12-04T12:41:06;98011.09;;;-0.71;79.73
7760;BME280;3924;48.830;9.262;2023-12-04T12:43:34;98024.06;;;-0.74;79.80
7760;BME280;3924;48.830;9.262;2023-12-04T12:46:00;98025.31;;;-0.77;79.44
7760;BME280;3924;48.830;9.262;2023-12-04T12:48:27;98043.13;;;-0.77;80.10
7760;BME280;3924;48.830;9.262;2023-12-04T12:50:56;98030.44;;;-0.75;79.76
7760;BME280;3924;48.830;9.262;2023-12-04T12:53:23;98037.38;;;-0.74;79.79
7760;BME280;3924;48.830;9.262;2023-12-04T12:55:50;98040.03;;;-0.74;79.85
7760;BME280;3924;48.830;9.262;2023-12-04T12:58:16;98021.41;;;-0.74;79.66
7760;BME280;3924;48.830;9.262;2023-12-04T13:00:47;98013.41;;;-0.74;79.85
7760;BME280;3924;48.830;9.262;2023-12-04T13:03:14;98012.38;;;-0.73;79.71
7760;BME280;3924;48.830;9.262;2023-12-04T13:05:41;98007.28;;;-0.75;79.88
7760;BME280;3924;48.830;9.262;2023-12-04T13:08:08;98014.56;;;-0.70;79.70
7760;BME280;3924;48.830;9.262;2023-12-04T13:10:35;98001.25;;;-0.70;79.99
7760;BME280;3924;48.830;9.262;2023-12-04T13:13:01;97999.41;;;-0.70;79.66
7760;BME280;3924;48.830;9.262;2023-12-04T13:15:28;97998.13;;;-0.67;79.69
7760;BME280;3924;48.830;9.262;2023-12-04T13:17:55;98009.09;;;-0.64;79.67
7760;BME280;3924;48.830;9.262;2023-12-04T13:20:23;97998.22;;;-0.62;79.72
7760;BME280;3924;48.830;9.262;2023-12-04T13:22:49;98001.47;;;-0.60;79.87
7760;BME280;3924;48.830;9.262;2023-12-04T13:25:16;97978.09;;;-0.58;79.83
7760;BME280;3924;48.830;9.262;2023-12-04T13:27:43;97970.66;;;-0.56;79.64